createdAt,value
2017-11-20T00:00:46.139Z,3.30
2017-11-20T00:03:16.071Z,3.30
2017-11-20T00:05:44.414Z,3.30
2017-11-20T00:08:12.775Z,3.30
2017-11-20T00:10:41.215Z,3.30
2017-11-20T00:13:09.558Z,3.20
2017-11-20T00:15:38.712Z,3.20
2017-11-20T00:18:07.871Z,3.20
2017-11-20T00:20:36.218Z,3.20
2017-11-20T00:23:04.583Z,3.10
2017-11-20T00:25:32.926Z,3.10
2017-11-20T00:28:01.270Z,3.10
2017-11-20T00:30:29.631Z,3.10
2017-11-20T00:32:58.740Z,3.10
2017-11-20T00:35:27.864Z,3.10
2017-11-20T00:37:56.345Z,3.10
2017-11-20T00:40:24.686Z,3.10
2017-11-20T00:42:53.942Z,3.00
2017-11-20T00:45:22.310Z,3.00
2017-11-20T00:47:50.651Z,3.00
2017-11-20T00:50:19.823Z,3.00
2017-11-20T00:52:48.969Z,3.00
2017-11-20T00:55:17.514Z,3.00
2017-11-20T00:57:46.632Z,3.00
2017-11-20T01:00:14.668Z,2.90
2017-11-20T01:02:43.239Z,3.00
2017-11-20T01:05:11.596Z,2.90
2017-11-20T01:07:40.299Z,3.00
2017-11-20T01:10:08.666Z,2.90
2017-11-20T01:12:37.197Z,2.90
2017-11-20T01:15:06.331Z,2.90
2017-11-20T01:17:34.700Z,2.80
2017-11-20T01:20:03.230Z,2.80
2017-11-20T01:22:32.371Z,2.90
2017-11-20T01:25:00.712Z,2.90
2017-11-20T01:27:29.844Z,2.90
2017-11-20T01:29:58.220Z,2.90
2017-11-20T01:32:26.562Z,3.00
2017-11-20T01:34:55.681Z,3.00
2017-11-20T01:37:24.078Z,3.00
2017-11-20T01:39:52.446Z,3.00
2017-11-20T01:42:20.798Z,3.00
2017-11-20T01:44:49.602Z,3.00
2017-11-20T01:47:17.947Z,2.90
2017-11-20T01:49:46.295Z,2.90
2017-11-20T01:52:14.650Z,2.90
2017-11-20T01:54:42.698Z,2.90
2017-11-20T01:57:11.064Z,2.80
2017-11-20T01:59:40.209Z,2.80
2017-11-20T02:02:08.093Z,2.80
2017-11-20T02:04:36.449Z,2.80
2017-11-20T02:07:04.826Z,2.80
2017-11-20T02:09:33.179Z,2.80
2017-11-20T02:12:01.520Z,2.80
2017-11-20T02:14:30.687Z,2.70
2017-11-20T02:16:59.049Z,2.70
2017-11-20T02:19:26.935Z,2.70
2017-11-20T02:21:55.297Z,2.60
2017-11-20T02:24:22.798Z,2.60
2017-11-20T02:26:50.828Z,2.60
2017-11-20T02:29:18.869Z,2.50
2017-11-20T02:31:46.888Z,2.50
2017-11-20T02:34:14.889Z,2.50
2017-11-20T02:36:43.382Z,2.50
2017-11-20T02:39:11.729Z,2.50
2017-11-20T02:41:39.443Z,2.50
2017-11-20T02:44:07.479Z,2.40
2017-11-20T02:46:36.311Z,2.40
2017-11-20T02:49:05.254Z,2.40
2017-11-20T02:51:33.734Z,2.40
2017-11-20T02:54:02.834Z,2.40
2017-11-20T02:56:31.283Z,2.30
2017-11-20T02:58:59.661Z,2.30
2017-11-20T03:01:28.023Z,2.30
2017-11-20T03:03:56.440Z,2.30
2017-11-20T03:06:25.587Z,2.30
2017-11-20T03:08:53.974Z,2.30
2017-11-20T03:11:22.309Z,2.30
2017-11-20T03:13:51.450Z,2.30
2017-11-20T03:16:19.455Z,2.30
2017-11-20T03:18:48.574Z,2.40
2017-11-20T03:21:17.034Z,2.40
2017-11-20T03:23:46.154Z,2.40
2017-11-20T03:26:14.502Z,2.30
2017-11-20T03:28:43.683Z,2.30
2017-11-20T03:31:12.044Z,2.30
2017-11-20T03:33:40.383Z,2.30
2017-11-20T03:36:08.751Z,2.30
2017-11-20T03:38:37.854Z,2.30
2017-11-20T03:41:05.538Z,2.30
2017-11-20T03:43:33.258Z,2.30
2017-11-20T03:46:02.057Z,2.30
2017-11-20T03:48:30.607Z,2.30
2017-11-20T03:50:58.991Z,2.40
2017-11-20T03:53:27.347Z,2.40
2017-11-20T03:55:55.692Z,2.40
2017-11-20T03:58:24.063Z,2.50
2017-11-20T04:00:52.411Z,2.50
2017-11-20T04:03:21.529Z,2.50
2017-11-20T04:05:49.574Z,2.50
2017-11-20T04:08:17.927Z,2.50
2017-11-20T04:10:46.380Z,2.60
2017-11-20T04:13:14.745Z,2.60
2017-11-20T04:15:43.102Z,2.60
2017-11-20T04:18:12.216Z,2.60
2017-11-20T04:20:40.596Z,2.60
2017-11-20T04:23:08.954Z,2.70
2017-11-20T04:25:38.070Z,2.60
2017-11-20T04:28:06.434Z,2.60
2017-11-20T04:30:34.902Z,2.70
2017-11-20T04:33:03.694Z,2.70
2017-11-20T04:35:32.846Z,2.80
2017-11-20T04:38:01.209Z,2.70
2017-11-20T04:40:29.553Z,2.80
2017-11-20T04:42:58.366Z,2.80
2017-11-20T04:45:26.722Z,2.80
2017-11-20T04:47:55.116Z,2.80
2017-11-20T04:50:22.830Z,2.80
2017-11-20T04:52:51.182Z,2.80
2017-11-20T04:55:19.575Z,2.80
2017-11-20T04:57:47.961Z,2.80
2017-11-20T05:00:15.658Z,2.90
2017-11-20T05:02:44.127Z,2.90
2017-11-20T05:05:13.291Z,2.90
2017-11-20T05:07:41.654Z,2.90
2017-11-20T05:10:10.012Z,2.90
2017-11-20T05:12:38.389Z,2.90
2017-11-20T05:15:06.774Z,2.90
2017-11-20T05:17:35.125Z,3.00
2017-11-20T05:20:03.509Z,3.00
2017-11-20T05:22:31.853Z,3.00
2017-11-20T05:25:00.253Z,3.00
2017-11-20T05:27:28.805Z,3.00
2017-11-20T05:29:57.963Z,3.00
2017-11-20T05:32:26.314Z,3.00
2017-11-20T05:34:54.693Z,3.00
2017-11-20T05:37:23.057Z,3.00
2017-11-20T05:39:52.175Z,3.10
2017-11-20T05:42:20.551Z,3.00
2017-11-20T05:44:48.906Z,3.10
2017-11-20T05:47:18.064Z,3.00
2017-11-20T05:49:46.648Z,3.00
2017-11-20T05:52:15.039Z,3.00
2017-11-20T05:54:43.434Z,3.10
2017-11-20T05:57:11.792Z,3.10
2017-11-20T05:59:40.146Z,3.10
2017-11-20T06:02:08.491Z,3.20
2017-11-20T06:04:36.873Z,3.00
2017-11-20T06:07:05.269Z,3.00
2017-11-20T06:09:33.626Z,3.10
2017-11-20T06:12:02.008Z,3.20
2017-11-20T06:14:30.366Z,3.20
2017-11-20T06:16:59.487Z,3.20
2017-11-20T06:19:27.862Z,3.20
2017-11-20T06:21:56.206Z,3.20
2017-11-20T06:24:24.558Z,3.20
2017-11-20T06:26:52.938Z,3.30
2017-11-20T06:29:21.293Z,3.30
2017-11-20T06:31:49.650Z,3.30
2017-11-20T06:34:19.294Z,3.20
2017-11-20T06:36:47.830Z,3.20
2017-11-20T06:39:16.177Z,3.20
2017-11-20T06:41:44.542Z,3.30
2017-11-20T06:44:12.915Z,3.30
2017-11-20T06:46:41.277Z,3.30
2017-11-20T06:49:09.640Z,3.30
2017-11-20T06:51:37.987Z,3.30
2017-11-20T06:54:07.126Z,3.30
2017-11-20T06:56:35.489Z,3.20
2017-11-20T06:59:03.881Z,3.10
2017-11-20T07:01:32.278Z,3.10
2017-11-20T07:04:00.844Z,3.10
2017-11-20T07:06:29.310Z,3.10
2017-11-20T07:08:57.655Z,3.20
2017-11-20T07:11:27.101Z,3.20
2017-11-20T07:13:55.449Z,3.10
2017-11-20T07:16:23.807Z,3.20
2017-11-20T07:18:53.608Z,3.30
2017-11-20T07:21:21.951Z,3.20
2017-11-20T07:23:50.430Z,3.30
2017-11-20T07:26:29.992Z,3.40
2017-11-20T07:29:10.265Z,3.50
2017-11-20T07:31:39.401Z,3.50
2017-11-20T07:34:19.022Z,3.40
2017-11-20T07:36:59.390Z,3.50
2017-11-20T07:39:34.686Z,3.40
2017-11-20T07:42:03.250Z,3.50
2017-11-20T07:44:31.600Z,3.50
2017-11-20T07:46:59.951Z,3.50
2017-11-20T07:49:29.096Z,3.60
2017-11-20T07:51:57.452Z,3.50
2017-11-20T07:54:25.818Z,3.60
2017-11-20T07:56:54.193Z,3.60
2017-11-20T07:59:22.554Z,3.60
2017-11-20T08:01:51.663Z,3.60
2017-11-20T08:04:20.785Z,3.70
2017-11-20T08:06:49.141Z,3.70
2017-11-20T08:09:17.694Z,3.70
2017-11-20T08:11:46.086Z,3.70
2017-11-20T08:14:15.208Z,3.70
2017-11-20T08:16:43.555Z,3.70
2017-11-20T08:19:12.699Z,3.70
2017-11-20T08:21:41.252Z,3.70
2017-11-20T08:24:09.598Z,3.80
2017-11-20T08:26:37.967Z,3.80
2017-11-20T08:29:06.318Z,3.80
2017-11-20T08:31:34.495Z,3.80
2017-11-20T08:34:02.859Z,3.80
2017-11-20T08:36:31.412Z,3.90
2017-11-20T08:39:00.028Z,3.90
2017-11-20T08:41:28.137Z,4.00
2017-11-20T08:43:56.498Z,4.00
2017-11-20T08:46:24.858Z,4.00
2017-11-20T08:48:53.226Z,4.10
2017-11-20T08:51:21.599Z,4.10
2017-11-20T08:53:49.950Z,4.20
2017-11-20T08:56:18.766Z,4.30
2017-11-20T08:58:47.114Z,4.30
2017-11-20T09:01:16.458Z,4.30
2017-11-20T09:03:44.521Z,4.30
2017-11-20T09:06:12.862Z,4.30
2017-11-20T09:08:42.003Z,4.40
2017-11-20T09:11:10.393Z,4.40
2017-11-20T09:13:38.734Z,4.50
2017-11-20T09:16:07.080Z,4.50
2017-11-20T09:18:36.599Z,4.60
2017-11-20T09:21:05.730Z,4.60
2017-11-20T09:23:34.961Z,4.60
2017-11-20T09:26:03.796Z,4.60
2017-11-20T09:28:32.147Z,4.60
2017-11-20T09:31:01.277Z,4.70
2017-11-20T09:33:29.652Z,4.70
2017-11-20T09:35:57.339Z,4.70
2017-11-20T09:38:25.886Z,4.70
2017-11-20T09:40:54.292Z,4.80
2017-11-20T09:43:22.630Z,4.80
2017-11-20T09:45:51.751Z,4.80
2017-11-20T09:48:20.297Z,4.80
2017-11-20T09:50:48.766Z,5.20
2017-11-20T09:53:16.649Z,4.90
2017-11-20T09:55:45.121Z,4.90
2017-11-20T09:58:12.843Z,4.80
2017-11-20T10:00:40.526Z,5.00
2017-11-20T10:03:08.906Z,5.00
2017-11-20T10:05:37.686Z,5.00
2017-11-20T10:08:07.360Z,5.10
2017-11-20T10:10:35.081Z,5.10
2017-11-20T10:13:02.778Z,5.10
2017-11-20T10:15:30.467Z,5.00
2017-11-20T10:17:58.551Z,5.10
2017-11-20T10:20:26.417Z,5.10
2017-11-20T10:22:54.824Z,5.20
2017-11-20T10:25:23.637Z,5.30
2017-11-20T10:27:54.052Z,5.30
2017-11-20T10:30:22.507Z,5.30
2017-11-20T10:32:50.891Z,5.30
2017-11-20T10:35:18.595Z,5.30
2017-11-20T10:37:46.294Z,5.30
2017-11-20T10:40:14.347Z,5.20
2017-11-20T10:42:42.047Z,5.30
2017-11-20T10:45:09.752Z,5.30
2017-11-20T10:47:37.461Z,5.30
2017-11-20T10:50:05.194Z,5.30
2017-11-20T10:52:33.208Z,5.20
2017-11-20T10:55:03.690Z,5.20
2017-11-20T10:57:32.304Z,5.20
2017-11-20T11:00:03.370Z,5.30
2017-11-20T11:02:31.919Z,5.30
2017-11-20T11:04:59.926Z,5.30
2017-11-20T11:07:27.799Z,5.30
2017-11-20T11:09:55.602Z,5.30
2017-11-20T11:12:23.303Z,5.20
2017-11-20T11:14:51.796Z,5.20
2017-11-20T11:17:20.295Z,5.20
2017-11-20T11:19:48.008Z,5.20
2017-11-20T11:22:15.718Z,5.20
2017-11-20T11:24:43.444Z,5.20
2017-11-20T11:27:11.132Z,5.20
2017-11-20T11:29:39.628Z,5.20
2017-11-20T11:32:07.333Z,5.20
2017-11-20T11:34:35.351Z,5.20
2017-11-20T11:37:03.726Z,5.20
2017-11-20T11:39:31.427Z,5.20
2017-11-20T11:41:59.461Z,5.20
2017-11-20T11:44:27.493Z,5.20
2017-11-20T11:46:56.006Z,5.20
2017-11-20T11:49:24.456Z,5.20
2017-11-20T11:51:52.173Z,5.20
2017-11-20T11:54:20.203Z,5.20
2017-11-20T11:56:47.890Z,5.30
2017-11-20T11:59:15.952Z,5.20
2017-11-20T12:04:12.686Z,5.30
2017-11-20T12:06:40.794Z,5.30
2017-11-20T12:09:08.520Z,5.30
2017-11-20T12:11:36.220Z,5.20
2017-11-20T12:14:03.952Z,5.30
2017-11-20T12:16:32.427Z,5.30
2017-11-20T12:19:01.596Z,5.30
2017-11-20T12:21:29.635Z,5.30
2017-11-20T12:23:57.347Z,5.20
2017-11-20T12:26:25.375Z,5.30
2017-11-20T12:28:53.093Z,5.30
2017-11-20T12:31:21.899Z,5.30
2017-11-20T12:33:50.579Z,5.30
2017-11-20T12:36:19.058Z,5.30
2017-11-20T12:38:46.776Z,5.30
2017-11-20T12:41:15.604Z,5.00
2017-11-20T12:43:44.136Z,5.30
2017-11-20T12:46:12.158Z,5.30
2017-11-20T12:48:41.170Z,5.30
2017-11-20T12:51:08.880Z,5.30
2017-11-20T12:53:38.411Z,5.30
2017-11-20T12:56:06.888Z,5.40
2017-11-20T12:58:35.128Z,5.30
2017-11-20T13:01:02.812Z,5.40
2017-11-20T13:03:30.562Z,5.40
2017-11-20T13:05:58.610Z,5.40
2017-11-20T13:08:26.626Z,5.50
2017-11-20T13:10:54.647Z,5.50
2017-11-20T13:13:22.353Z,5.50
2017-11-20T13:15:50.057Z,5.50
2017-11-20T13:18:17.830Z,5.50
2017-11-20T13:20:45.540Z,5.60
2017-11-20T13:23:13.237Z,5.70
2017-11-20T13:28:10.009Z,5.80
2017-11-20T13:30:37.696Z,5.80
2017-11-20T13:33:05.400Z,5.80
2017-11-20T13:35:33.875Z,5.90
2017-11-20T13:40:30.626Z,6.00
2017-11-20T13:42:59.118Z,6.00
2017-11-20T13:45:27.589Z,6.00
2017-11-20T13:47:55.269Z,6.00
2017-11-20T13:50:23.772Z,6.00
2017-11-20T13:52:51.472Z,6.00
2017-11-20T13:55:19.168Z,6.10
2017-11-20T13:57:47.664Z,6.10
2017-11-20T14:00:16.019Z,6.10
2017-11-20T14:02:44.484Z,6.10
2017-11-20T14:05:13.059Z,6.10
2017-11-20T14:07:42.271Z,6.10
2017-11-20T14:10:10.764Z,6.10
2017-11-20T14:12:38.496Z,6.10
2017-11-20T14:15:06.200Z,6.10
2017-11-20T14:17:33.716Z,6.10
2017-11-20T14:20:01.504Z,6.10
2017-11-20T14:22:29.976Z,6.10
2017-11-20T14:24:58.002Z,6.10
2017-11-20T14:27:26.863Z,6.10
2017-11-20T14:29:54.553Z,6.10
2017-11-20T14:34:52.461Z,6.00
2017-11-20T14:37:20.147Z,6.10
2017-11-20T14:39:48.619Z,6.00
2017-11-20T14:42:16.325Z,6.00
2017-11-20T14:44:44.027Z,6.00
2017-11-20T14:47:13.399Z,6.00
2017-11-20T14:49:41.163Z,6.00
2017-11-20T14:52:09.534Z,6.00
2017-11-20T14:54:38.025Z,6.00
2017-11-20T14:57:05.757Z,6.00
2017-11-20T14:59:34.219Z,6.00
2017-11-20T15:02:01.909Z,6.00
2017-11-20T15:04:29.622Z,6.00
2017-11-20T15:06:57.391Z,6.10
2017-11-20T15:09:26.627Z,6.10
2017-11-20T15:11:54.212Z,6.10
2017-11-20T15:14:21.917Z,6.10
2017-11-20T15:16:49.636Z,6.20
2017-11-20T15:19:17.358Z,6.20
2017-11-20T15:21:45.093Z,6.20
2017-11-20T15:24:12.778Z,6.20
2017-11-20T15:26:41.268Z,6.10
2017-11-20T15:29:09.931Z,6.20
2017-11-20T15:31:37.619Z,6.10
2017-11-20T15:34:06.099Z,6.20
2017-11-20T15:36:34.588Z,6.20
2017-11-20T15:39:02.465Z,6.20
2017-11-20T15:44:04.928Z,6.20
2017-11-20T15:46:34.096Z,6.20
2017-11-20T15:49:02.473Z,6.20
2017-11-20T15:51:30.833Z,6.20
2017-11-20T15:53:59.244Z,6.20
2017-11-20T15:56:26.926Z,6.20
2017-11-20T15:58:56.054Z,6.20
2017-11-20T16:01:24.440Z,6.20
2017-11-20T16:03:52.794Z,6.20
2017-11-20T16:06:21.167Z,6.10
2017-11-20T16:08:51.119Z,6.20
2017-11-20T16:11:20.275Z,6.20
2017-11-20T16:13:48.636Z,6.20
2017-11-20T16:16:17.881Z,6.30
2017-11-20T16:18:46.639Z,6.20
2017-11-20T16:21:15.006Z,6.30
2017-11-20T16:23:44.529Z,6.30
2017-11-20T16:26:12.888Z,6.30
2017-11-20T16:28:42.022Z,6.30
2017-11-20T16:31:10.098Z,6.30
2017-11-20T16:33:38.128Z,6.30
2017-11-20T16:36:06.509Z,6.40
2017-11-20T16:38:34.894Z,6.40
2017-11-20T16:41:02.916Z,6.40
2017-11-20T16:43:32.496Z,6.40
2017-11-20T16:46:00.562Z,6.40
2017-11-20T16:48:28.914Z,6.40
2017-11-20T16:50:57.423Z,6.40
2017-11-20T16:53:25.784Z,6.40
2017-11-20T16:55:54.164Z,6.40
2017-11-20T16:58:33.936Z,6.40
2017-11-20T17:01:04.921Z,6.50
2017-11-20T17:03:33.774Z,6.50
2017-11-20T17:06:01.490Z,6.50
2017-11-20T17:08:30.627Z,6.50
2017-11-20T17:11:00.149Z,6.50
2017-11-20T17:13:28.523Z,6.50
2017-11-20T17:15:57.247Z,6.50
2017-11-20T17:18:26.438Z,6.50
2017-11-20T17:20:55.021Z,6.50
2017-11-20T17:23:24.160Z,6.50
2017-11-20T17:25:52.565Z,6.50
2017-11-20T17:28:20.980Z,6.60
2017-11-20T17:30:50.113Z,6.60
2017-11-20T17:33:18.559Z,6.60
2017-11-20T17:35:46.923Z,6.60
2017-11-20T17:38:16.063Z,6.60
2017-11-20T17:40:44.438Z,6.70
2017-11-20T17:43:12.799Z,6.60
2017-11-20T17:45:41.151Z,6.60
2017-11-20T17:48:09.526Z,6.70
2017-11-20T17:50:38.660Z,6.80
2017-11-20T17:53:08.152Z,6.80
2017-11-20T17:55:38.011Z,6.80
2017-11-20T17:58:06.827Z,6.80
2017-11-20T18:00:35.260Z,6.80
2017-11-20T18:03:03.648Z,6.90
2017-11-20T18:05:32.036Z,6.90
2017-11-20T18:08:00.407Z,6.90
2017-11-20T18:10:28.809Z,6.90
2017-11-20T18:12:57.174Z,6.90
2017-11-20T18:15:25.221Z,6.90
2017-11-20T18:17:53.858Z,7.00
2017-11-20T18:20:23.018Z,7.00
2017-11-20T18:22:51.418Z,7.10
2017-11-20T18:25:20.606Z,7.00
2017-11-20T18:27:50.741Z,7.10
2017-11-20T18:30:19.268Z,7.10
2017-11-20T18:32:47.471Z,7.10
2017-11-20T18:35:15.879Z,7.10
2017-11-20T18:37:45.100Z,7.00
2017-11-20T18:40:13.614Z,7.10
2017-11-20T18:42:42.694Z,7.10
2017-11-20T18:45:11.061Z,7.10
2017-11-20T18:47:39.451Z,7.20
2017-11-20T18:50:07.840Z,7.20
2017-11-20T18:52:36.212Z,7.20
2017-11-20T18:55:03.950Z,7.20
2017-11-20T18:57:32.302Z,7.20
2017-11-20T19:00:12.720Z,7.30
2017-11-20T19:02:49.481Z,7.30
2017-11-20T19:05:29.192Z,7.30
2017-11-20T19:08:09.447Z,7.30
2017-11-20T19:10:38.620Z,7.30
2017-11-20T19:13:07.820Z,7.30
2017-11-20T19:15:36.359Z,7.30
2017-11-20T19:18:04.796Z,7.30
2017-11-20T19:20:33.985Z,7.40
2017-11-20T19:23:03.207Z,7.40
2017-11-20T19:25:31.757Z,7.40
2017-11-20T19:28:00.126Z,7.50
2017-11-20T19:30:28.588Z,7.50
2017-11-20T19:32:57.069Z,7.50
2017-11-20T19:35:25.439Z,7.40
2017-11-20T19:37:57.474Z,7.40
2017-11-20T19:40:25.930Z,7.40
2017-11-20T19:42:56.801Z,7.50
2017-11-20T19:45:25.422Z,7.50
2017-11-20T19:47:53.868Z,7.40
2017-11-20T19:50:22.368Z,7.50
2017-11-20T19:52:51.826Z,7.50
2017-11-20T19:55:21.153Z,7.50
2017-11-20T19:57:49.609Z,7.60
2017-11-20T20:00:18.844Z,7.60
2017-11-20T20:02:47.239Z,7.60
2017-11-20T20:05:15.917Z,7.50
2017-11-20T20:07:44.304Z,7.60
2017-11-20T20:10:12.657Z,7.60
2017-11-20T20:12:41.100Z,7.70
2017-11-20T20:15:21.306Z,7.70
2017-11-20T20:17:49.733Z,7.70
2017-11-20T20:20:18.861Z,7.80
2017-11-20T20:22:47.239Z,7.80
2017-11-20T20:25:15.846Z,7.80
2017-11-20T20:27:44.200Z,7.80
2017-11-20T20:30:12.576Z,7.80
2017-11-20T20:32:40.988Z,7.90
2017-11-20T20:35:09.356Z,7.90
2017-11-20T20:37:38.544Z,7.90
2017-11-20T20:40:06.963Z,7.90
2017-11-20T20:42:35.223Z,7.90
2017-11-20T20:45:04.458Z,8.00
2017-11-20T20:47:33.650Z,8.00
2017-11-20T20:50:02.773Z,8.00
2017-11-20T20:52:31.171Z,8.00
2017-11-20T20:54:59.751Z,8.10
2017-11-20T20:57:28.351Z,8.10
2017-11-20T20:59:56.747Z,8.10
2017-11-20T21:02:25.234Z,8.10
2017-11-20T21:04:54.371Z,8.00
2017-11-20T21:07:22.777Z,8.00
2017-11-20T21:09:56.759Z,8.10
2017-11-20T21:12:27.070Z,8.10
2017-11-20T21:14:55.446Z,8.10
2017-11-20T21:17:24.624Z,8.10
2017-11-20T21:19:53.781Z,8.20
2017-11-20T21:22:22.235Z,8.20
2017-11-20T21:24:50.611Z,8.10
2017-11-20T21:27:18.972Z,8.10
2017-11-20T21:29:48.225Z,8.20
2017-11-20T21:32:18.193Z,8.20
2017-11-20T21:34:46.553Z,8.20
2017-11-20T21:37:16.476Z,8.30
2017-11-20T21:39:45.639Z,8.20
2017-11-20T21:42:13.991Z,8.20
2017-11-20T21:44:42.339Z,8.20
2017-11-20T21:47:11.472Z,8.50
2017-11-20T21:49:39.839Z,8.30
2017-11-20T21:52:07.988Z,8.30
2017-11-20T21:54:36.357Z,8.30
2017-11-20T21:57:05.505Z,8.30
2017-11-20T21:59:33.866Z,8.30
2017-11-20T22:02:02.243Z,8.30
2017-11-20T22:04:30.601Z,8.30
2017-11-20T22:06:59.015Z,8.30
2017-11-20T22:09:27.089Z,8.30
2017-11-20T22:11:55.438Z,8.30
2017-11-20T22:14:23.795Z,8.30
2017-11-20T22:16:52.167Z,8.30
2017-11-20T22:19:21.270Z,8.30
2017-11-20T22:21:49.632Z,8.30
2017-11-20T22:24:19.140Z,8.30
2017-11-20T22:26:48.248Z,8.40
2017-11-20T22:29:16.600Z,8.30
2017-11-20T22:31:45.234Z,8.30
2017-11-20T22:34:14.071Z,8.30
2017-11-20T22:36:44.064Z,8.40
2017-11-20T22:39:13.938Z,8.40
2017-11-20T22:41:42.386Z,8.40
2017-11-20T22:44:11.593Z,8.40
2017-11-20T22:46:40.999Z,8.40
2017-11-20T22:49:11.521Z,8.50
2017-11-20T22:51:40.261Z,8.40
2017-11-20T22:54:09.522Z,8.60
2017-11-20T22:56:37.888Z,8.40
2017-11-20T22:59:07.774Z,8.50
2017-11-20T23:01:36.942Z,8.50
2017-11-20T23:04:08.069Z,8.50
2017-11-20T23:06:40.508Z,8.50
2017-11-20T23:09:09.166Z,8.60
2017-11-20T23:11:38.517Z,8.60
2017-11-20T23:14:06.948Z,8.60
2017-11-20T23:16:36.513Z,8.60
2017-11-20T23:19:05.328Z,8.60
2017-11-20T23:21:34.079Z,8.50
2017-11-20T23:24:03.446Z,8.60
2017-11-20T23:26:34.759Z,8.50
2017-11-20T23:29:03.250Z,8.50
2017-11-20T23:31:32.646Z,8.60
2017-11-20T23:34:03.236Z,8.60
2017-11-20T23:36:31.984Z,8.60
2017-11-20T23:39:01.134Z,8.70
